sensor_id;sensor_type;location;lat;lon;timestamp;pressure;altitude;pressure_sealevel;temperature;humidity
25161;BME280;13125;50.224;19.070;2022-07-12T00:01:11;98591.64;;;16.59;84.79
25161;BME280;13125;50.224;19.070;2022-07-12T00:02:42;98587.66;;;16.57;85.00
25161;BME280;13125;50.224;19.070;2022-07-12T00:04:15;98590.84;;;16.59;84.95
25161;BME280;13125;50.224;19.070;2022-07-12T00:05:48;98591.45;;;16.56;85.20
25161;BME280;13125;50.224;19.070;2022-07-12T00:07:20;98588.47;;;16.57;85.11
25161;BME280;13125;50.224;19.070;2022-07-12T00:08:56;98587.85;;;16.60;85.17
25161;BME280;13125;50.224;19.070;2022-07-12T00:10:27;98595.09;;;16.60;85.22
25161;BME280;13125;50.224;19.070;2022-07-12T00:11:57;98592.41;;;16.60;85.23
25161;BME280;13125;50.224;19.070;2022-07-12T00:13:35;98600.45;;;16.60;85.26
25161;BME280;13125;50.224;19.070;2022-07-12T00:15:09;98598.27;;;16.62;85.34
25161;BME280;13125;50.224;19.070;2022-07-12T00:16:41;98598.27;;;16.62;85.52
25161;BME280;13125;50.224;19.070;2022-07-12T00:18:14;98606.61;;;16.60;85.73
25161;BME280;13125;50.224;19.070;2022-07-12T00:19:43;98594.78;;;16.61;85.75
25161;BME280;13125;50.224;19.070;2022-07-12T00:21:14;98599.34;;;16.61;85.89
25161;BME280;13125;50.224;19.070;2022-07-12T00:22:46;98598.57;;;16.60;86.06
25161;BME280;13125;50.224;19.070;2022-07-12T00:24:16;98605.34;;;16.58;86.23
25161;BME280;13125;50.224;19.070;2022-07-12T00:25:49;98601.06;;;16.57;86.48
25161;BME280;13125;50.224;19.070;2022-07-12T00:27:27;98599.19;;;16.57;86.62
25161;BME280;13125;50.224;19.070;2022-07-12T00:28:59;98608.63;;;16.55;86.65
25161;BME280;13125;50.224;19.070;2022-07-12T00:30:28;98602.01;;;16.52;86.83
25161;BME280;13125;50.224;19.070;2022-07-12T00:31:57;98607.37;;;16.52;86.89
25161;BME280;13125;50.224;19.070;2022-07-12T00:33:28;98599.64;;;16.51;86.83
25161;BME280;13125;50.224;19.070;2022-07-12T00:35:05;98605.61;;;16.48;86.90
25161;BME280;13125;50.224;19.070;2022-07-12T00:36:36;98606.41;;;16.48;87.08
25161;BME280;13125;50.224;19.070;2022-07-12T00:38:09;98603.23;;;16.46;87.09
25161;BME280;13125;50.224;19.070;2022-07-12T00:39:41;98604.03;;;16.47;87.23
25161;BME280;13125;50.224;19.070;2022-07-12T00:41:13;98608.92;;;16.45;87.23
25161;BME280;13125;50.224;19.070;2022-07-12T00:42:43;98606.55;;;16.43;87.42
25161;BME280;13125;50.224;19.070;2022-07-12T00:44:15;98611.11;;;16.43;87.38
25161;BME280;13125;50.224;19.070;2022-07-12T00:45:49;98613.32;;;16.41;87.46
25161;BME280;13125;50.224;19.070;2022-07-12T00:48:51;98614.89;;;16.42;87.81
25161;BME280;13125;50.224;19.070;2022-07-12T00:50:23;98613.02;;;16.42;87.73
25161;BME280;13125;50.224;19.070;2022-07-12T00:51:56;98611.83;;;16.35;88.02
25161;BME280;13125;50.224;19.070;2022-07-12T00:53:33;98607.74;;;16.37;88.13
25161;BME280;13125;50.224;19.070;2022-07-12T00:55:07;98613.90;;;16.38;88.14
25161;BME280;13125;50.224;19.070;2022-07-12T00:56:40;98605.06;;;16.37;88.18
25161;BME280;13125;50.224;19.070;2022-07-12T00:58:13;98596.72;;;16.39;88.16
25161;BME280;13125;50.224;19.070;2022-07-12T00:59:51;98608.55;;;16.38;88.26
25161;BME280;13125;50.224;19.070;2022-07-12T01:01:21;98604.59;;;16.35;88.36
25161;BME280;13125;50.224;19.070;2022-07-12T01:02:58;98604.91;;;16.34;88.48
25161;BME280;13125;50.224;19.070;2022-07-12T01:04:30;98598.28;;;16.31;88.54
25161;BME280;13125;50.224;19.070;2022-07-12T01:06:00;98599.08;;;16.32;88.54
25161;BME280;13125;50.224;19.070;2022-07-12T01:07:33;98602.06;;;16.30;88.67
25161;BME280;13125;50.224;19.070;2022-07-12T01:09:10;98600.46;;;16.29;88.78
25161;BME280;13125;50.224;19.070;2022-07-12T01:10:40;98605.35;;;16.27;88.80
25161;BME280;13125;50.224;19.070;2022-07-12T01:12:14;98606.16;;;16.28;88.80
25161;BME280;13125;50.224;19.070;2022-07-12T01:13:44;98599.50;;;16.25;88.98
25161;BME280;13125;50.224;19.070;2022-07-12T01:15:16;98602.98;;;16.26;88.90
25161;BME280;13125;50.224;19.070;2022-07-12T01:16:45;98605.19;;;16.24;89.03
25161;BME280;13125;50.224;19.070;2022-07-12T01:18:21;98606.77;;;16.25;89.05
25161;BME280;13125;50.224;19.070;2022-07-12T01:19:56;98608.34;;;16.26;89.10
25161;BME280;13125;50.224;19.070;2022-07-12T01:21:31;98607.87;;;16.24;89.28
25161;BME280;13125;50.224;19.070;2022-07-12T01:23:01;98605.19;;;16.24;89.21
25161;BME280;13125;50.224;19.070;2022-07-12T01:24:33;98607.67;;;16.20;89.53
25161;BME280;13125;50.224;19.070;2022-07-12T01:26:06;98611.76;;;16.18;89.53
25161;BME280;13125;50.224;19.070;2022-07-12T01:27:38;98608.61;;;16.16;89.81
25161;BME280;13125;50.224;19.070;2022-07-12T01:29:08;98610.49;;;16.15;89.97
25161;BME280;13125;50.224;19.070;2022-07-12T01:30:40;98602.45;;;16.15;90.01
25161;BME280;13125;50.224;19.070;2022-07-12T01:32:09;98607.02;;;16.15;90.07
25161;BME280;13125;50.224;19.070;2022-07-12T01:33:39;98604.03;;;16.16;90.06
25161;BME280;13125;50.224;19.070;2022-07-12T01:35:11;98605.14;;;16.15;90.15
25161;BME280;13125;50.224;19.070;2022-07-12T01:36:46;98601.66;;;16.15;90.15
25161;BME280;13125;50.224;19.070;2022-07-12T01:38:16;98597.91;;;16.16;90.17
25161;BME280;13125;50.224;19.070;2022-07-12T01:39:57;98596.30;;;16.15;90.12
25161;BME280;13125;50.224;19.070;2022-07-12T01:41:26;98589.38;;;16.14;89.95
25161;BME280;13125;50.224;19.070;2022-07-12T01:42:57;98585.93;;;16.13;90.25
25161;BME280;13125;50.224;19.070;2022-07-12T01:44:31;98584.66;;;16.11;90.33
25161;BME280;13125;50.224;19.070;2022-07-12T01:46:06;98586.23;;;16.12;90.33
25161;BME280;13125;50.224;19.070;2022-07-12T01:47:39;98583.20;;;16.05;90.51
25161;BME280;13125;50.224;19.070;2022-07-12T01:49:08;98586.98;;;16.04;90.58
25161;BME280;13125;50.224;19.070;2022-07-12T01:50:43;98591.39;;;16.08;90.46
25161;BME280;13125;50.224;19.070;2022-07-12T01:52:16;98587.80;;;16.13;90.30
25161;BME280;13125;50.224;19.070;2022-07-12T01:53:53;98590.95;;;16.15;90.39
25161;BME280;13125;50.224;19.070;2022-07-12T01:55:26;98588.77;;;16.17;90.12
25161;BME280;13125;50.224;19.070;2022-07-12T01:56:59;98579.91;;;16.08;90.44
25161;BME280;13125;50.224;19.070;2022-07-12T01:58:29;98582.89;;;16.06;90.66
25161;BME280;13125;50.224;19.070;2022-07-12T02:00:04;98590.13;;;16.06;90.80
25161;BME280;13125;50.224;19.070;2022-07-12T02:01:38;98576.73;;;16.06;90.68
25161;BME280;13125;50.224;19.070;2022-07-12T02:03:07;98585.88;;;16.05;90.70
25161;BME280;13125;50.224;19.070;2022-07-12T02:04:37;98584.77;;;16.06;90.71
25161;BME280;13125;50.224;19.070;2022-07-12T02:06:12;98582.89;;;16.06;90.54
25161;BME280;13125;50.224;19.070;2022-07-12T02:07:45;98580.83;;;16.03;90.60
25161;BME280;13125;50.224;19.070;2022-07-12T02:09:16;98588.25;;;16.06;90.54
25161;BME280;13125;50.224;19.070;2022-07-12T02:10:54;98579.91;;;16.08;90.43
25161;BME280;13125;50.224;19.070;2022-07-12T02:12:26;98579.91;;;16.08;90.28
25161;BME280;13125;50.224;19.070;2022-07-12T02:14:04;98587.14;;;16.07;90.05
25161;BME280;13125;50.224;19.070;2022-07-12T02:15:35;98583.70;;;16.07;89.89
25161;BME280;13125;50.224;19.070;2022-07-12T02:17:04;98581.48;;;16.09;89.89
25161;BME280;13125;50.224;19.070;2022-07-12T02:18:37;98583.06;;;16.10;89.88
25161;BME280;13125;50.224;19.070;2022-07-12T02:20:13;98583.06;;;16.10;89.88
25161;BME280;13125;50.224;19.070;2022-07-12T02:21:43;98580.38;;;16.10;89.82
25161;BME280;13125;50.224;19.070;2022-07-12T02:23:18;98582.29;;;16.09;89.78
25161;BME280;13125;50.224;19.070;2022-07-12T02:24:48;98581.19;;;16.10;89.70
25161;BME280;13125;50.224;19.070;2022-07-12T02:26:26;98574.26;;;16.09;89.62
25161;BME280;13125;50.224;19.070;2022-07-12T02:28:01;98585.13;;;16.13;89.33
25161;BME280;13125;50.224;19.070;2022-07-12T02:29:39;98577.09;;;16.13;89.28
25161;BME280;13125;50.224;19.070;2022-07-12T02:31:09;98579.31;;;16.11;89.15
25161;BME280;13125;50.224;19.070;2022-07-12T02:32:39;98581.98;;;16.11;89.14
25161;BME280;13125;50.224;19.070;2022-07-12T02:34:16;98580.38;;;16.10;89.00
25161;BME280;13125;50.224;19.070;2022-07-12T02:35:49;98584.02;;;16.14;88.89
25161;BME280;13125;50.224;19.070;2022-07-12T02:37:25;98590.02;;;16.11;88.65
25161;BME280;13125;50.224;19.070;2022-07-12T02:39:00;98582.45;;;16.13;88.69
25161;BME280;13125;50.224;19.070;2022-07-12T02:40:33;98589.38;;;16.14;88.73
25161;BME280;13125;50.224;19.070;2022-07-12T02:42:03;98588.61;;;16.13;88.78
25161;BME280;13125;50.224;19.070;2022-07-12T02:43:33;98586.70;;;16.14;88.77
25161;BME280;13125;50.224;19.070;2022-07-12T02:45:03;98590.02;;;16.11;88.72
25161;BME280;13125;50.224;19.070;2022-07-12T02:46:35;98596.75;;;16.08;88.68
25161;BME280;13125;50.224;19.070;2022-07-12T02:48:08;98603.41;;;16.11;88.65
25161;BME280;13125;50.224;19.070;2022-07-12T02:49:41;98605.11;;;16.07;88.84
25161;BME280;13125;50.224;19.070;2022-07-12T02:51:14;98605.41;;;16.05;88.92
25161;BME280;13125;50.224;19.070;2022-07-12T02:52:43;98601.77;;;16.01;89.04
25161;BME280;13125;50.224;19.070;2022-07-12T02:54:21;98599.40;;;16.00;89.17
25161;BME280;13125;50.224;19.070;2022-07-12T02:55:57;98602.08;;;16.00;89.14
25161;BME280;13125;50.224;19.070;2022-07-12T02:57:27;98598.59;;;15.99;89.23
25161;BME280;13125;50.224;19.070;2022-07-12T02:59:02;98598.59;;;15.99;89.41
25161;BME280;13125;50.224;19.070;2022-07-12T03:00:32;98597.19;;;16.02;89.37
25161;BME280;13125;50.224;19.070;2022-07-12T03:02:02;98597.52;;;16.00;89.32
25161;BME280;13125;50.224;19.070;2022-07-12T03:03:31;98601.77;;;16.01;89.29
25161;BME280;13125;50.224;19.070;2022-07-12T03:05:01;98599.86;;;16.02;89.23
25161;BME280;13125;50.224;19.070;2022-07-12T03:06:34;98596.12;;;16.03;89.13
25161;BME280;13125;50.224;19.070;2022-07-12T03:08:05;98604.92;;;16.03;89.03
25161;BME280;13125;50.224;19.070;2022-07-12T03:09:34;98606.82;;;16.03;89.19
25161;BME280;13125;50.224;19.070;2022-07-12T03:11:12;98601.47;;;16.03;89.23
25161;BME280;13125;50.224;19.070;2022-07-12T03:12:46;98598.80;;;16.03;89.17
25161;BME280;13125;50.224;19.070;2022-07-12T03:14:15;98597.19;;;16.02;89.02
25161;BME280;13125;50.224;19.070;2022-07-12T03:15:49;98594.52;;;16.02;88.98
25161;BME280;13125;50.224;19.070;2022-07-12T03:17:22;98601.27;;;15.99;88.90
25161;BME280;13125;50.224;19.070;2022-07-12T03:18:55;98600.80;;;15.97;89.08
25161;BME280;13125;50.224;19.070;2022-07-12T03:20:25;98603.78;;;15.96;89.19
25161;BME280;13125;50.224;19.070;2022-07-12T03:22:00;98599.84;;;15.93;89.36
25161;BME280;13125;50.224;19.070;2022-07-12T03:23:34;98599.03;;;15.93;89.52
25161;BME280;13125;50.224;19.070;2022-07-12T03:25:05;98602.02;;;15.91;89.53
25161;BME280;13125;50.224;19.070;2022-07-12T03:26:36;98601.23;;;15.91;89.30
25161;BME280;13125;50.224;19.070;2022-07-12T03:28:07;98602.02;;;15.91;89.70
25161;BME280;13125;50.224;19.070;2022-07-12T03:29:36;98606.59;;;15.91;89.70
25161;BME280;13125;50.224;19.070;2022-07-12T03:31:05;98604.39;;;15.93;89.62
25161;BME280;13125;50.224;19.070;2022-07-12T03:32:39;98605.80;;;15.90;89.67
25161;BME280;13125;50.224;19.070;2022-07-12T03:34:17;98601.55;;;15.89;89.76
25161;BME280;13125;50.224;19.070;2022-07-12T03:35:47;98601.23;;;15.91;89.75
25161;BME280;13125;50.224;19.070;2022-07-12T03:37:22;98603.61;;;15.92;89.75
25161;BME280;13125;50.224;19.070;2022-07-12T03:38:57;98599.34;;;15.91;89.68
25161;BME280;13125;50.224;19.070;2022-07-12T03:40:33;98601.41;;;15.94;89.69
25161;BME280;13125;50.224;19.070;2022-07-12T03:42:04;98598.73;;;15.94;89.65
25161;BME280;13125;50.224;19.070;2022-07-12T03:43:36;98598.43;;;15.96;89.60
25161;BME280;13125;50.224;19.070;2022-07-12T03:45:13;98597.93;;;15.94;89.63
25161;BME280;13125;50.224;19.070;2022-07-12T03:46:41;98599.53;;;15.95;89.71
25161;BME280;13125;50.224;19.070;2022-07-12T03:48:14;98596.86;;;15.95;89.71
25161;BME280;13125;50.224;19.070;2022-07-12T03:49:49;98597.33;;;15.97;89.72
25161;BME280;13125;50.224;19.070;2022-07-12T03:51:18;98603.18;;;15.99;89.75
25161;BME280;13125;50.224;19.070;2022-07-12T03:52:54;98602.98;;;15.95;89.61
25161;BME280;13125;50.224;19.070;2022-07-12T03:54:23;98612.28;;;15.98;89.87
25161;BME280;13125;50.224;19.070;2022-07-12T03:55:55;98612.28;;;15.98;90.00
25161;BME280;13125;50.224;19.070;2022-07-12T03:57:30;98612.28;;;15.98;90.09
25161;BME280;13125;50.224;19.070;2022-07-12T03:59:08;98611.51;;;15.97;90.09
25161;BME280;13125;50.224;19.070;2022-07-12T04:00:37;98605.96;;;15.94;90.27
25161;BME280;13125;50.224;19.070;2022-07-12T04:02:08;98608.16;;;15.92;90.35
25161;BME280;13125;50.224;19.070;2022-07-12T04:03:40;98602.65;;;15.88;90.43
25161;BME280;13125;50.224;19.070;2022-07-12T04:05:15;98595.52;;;15.84;90.35
25161;BME280;13125;50.224;19.070;2022-07-12T04:06:47;98600.04;;;15.75;91.00
25161;BME280;13125;50.224;19.070;2022-07-12T04:08:19;98604.16;;;15.81;90.84
25161;BME280;13125;50.224;19.070;2022-07-12T04:09:55;98597.53;;;15.78;90.57
25161;BME280;13125;50.224;19.070;2022-07-12T04:11:27;98608.44;;;15.82;90.75
25161;BME280;13125;50.224;19.070;2022-07-12T04:12:57;98602.72;;;15.75;90.81
25161;BME280;13125;50.224;19.070;2022-07-12T04:14:30;98606.66;;;15.77;90.87
25161;BME280;13125;50.224;19.070;2022-07-12T04:16:03;98604.16;;;15.81;90.90
25161;BME280;13125;50.224;19.070;2022-07-12T04:17:35;98603.85;;;15.82;90.94
25161;BME280;13125;50.224;19.070;2022-07-12T04:19:10;98600.88;;;15.84;90.96
25161;BME280;13125;50.224;19.070;2022-07-12T04:20:43;98604.05;;;15.86;91.03
25161;BME280;13125;50.224;19.070;2022-07-12T04:22:15;98596.02;;;15.86;90.94
25161;BME280;13125;50.224;19.070;2022-07-12T04:23:48;98606.73;;;15.86;91.07
25161;BME280;13125;50.224;19.070;2022-07-12T04:25:18;98603.42;;;15.89;91.06
25161;BME280;13125;50.224;19.070;2022-07-12T04:26:50;98598.06;;;15.89;91.07
25161;BME280;13125;50.224;19.070;2022-07-12T04:28:25;98599.47;;;15.86;91.12
25161;BME280;13125;50.224;19.070;2022-07-12T04:29:58;98604.05;;;15.86;91.16
25161;BME280;13125;50.224;19.070;2022-07-12T04:31:31;98602.45;;;15.85;91.08
25161;BME280;13125;50.224;19.070;2022-07-12T04:33:03;98601.05;;;15.87;91.36
25161;BME280;13125;50.224;19.070;2022-07-12T04:34:33;98600.27;;;15.87;91.24
25161;BME280;13125;50.224;19.070;2022-07-12T04:36:02;98599.67;;;15.90;91.25
25161;BME280;13125;50.224;19.070;2022-07-12T04:37:37;98599.03;;;15.93;91.29
25161;BME280;13125;50.224;19.070;2022-07-12T04:39:12;98603.78;;;15.96;91.30
25161;BME280;13125;50.224;19.070;2022-07-12T04:40:45;98598.43;;;15.96;91.23
25161;BME280;13125;50.224;19.070;2022-07-12T04:42:15;98599.23;;;15.96;91.27
25161;BME280;13125;50.224;19.070;2022-07-12T04:43:48;98596.05;;;15.94;91.62
25161;BME280;13125;50.224;19.070;2022-07-12T04:45:25;98596.66;;;15.91;91.66
25161;BME280;13125;50.224;19.070;2022-07-12T04:46:57;98608.16;;;15.92;91.88
25161;BME280;13125;50.224;19.070;2022-07-12T04:48:32;98609.27;;;15.91;91.82
25161;BME280;13125;50.224;19.070;2022-07-12T04:50:06;98605.96;;;15.94;91.94
25161;BME280;13125;50.224;19.070;2022-07-12T04:51:39;98598.43;;;15.96;91.99
25161;BME280;13125;50.224;19.070;2022-07-12T04:53:11;98603.95;;;15.99;92.03
25161;BME280;13125;50.224;19.070;2022-07-12T04:54:43;98604.75;;;16.00;92.14
25161;BME280;13125;50.224;19.070;2022-07-12T04:56:18;98599.40;;;16.00;92.19
25161;BME280;13125;50.224;19.070;2022-07-12T04:57:48;98604.75;;;16.00;92.35
25161;BME280;13125;50.224;19.070;2022-07-12T04:59:20;98602.88;;;16.00;92.59
25161;BME280;13125;50.224;19.070;2022-07-12T05:00:55;98607.89;;;16.02;92.70
25161;BME280;13125;50.224;19.070;2022-07-12T05:02:27;98607.89;;;16.02;92.79
25161;BME280;13125;50.224;19.070;2022-07-12T05:03:59;98609.50;;;16.03;92.79
25161;BME280;13125;50.224;19.070;2022-07-12T05:05:29;98602.55;;;16.02;92.79
25161;BME280;13125;50.224;19.070;2022-07-12T05:07:02;98607.89;;;16.02;92.76
25161;BME280;13125;50.224;19.070;2022-07-12T05:08:32;98599.86;;;16.02;93.03
25161;BME280;13125;50.224;19.070;2022-07-12T05:10:08;98607.29;;;16.05;93.11
25161;BME280;13125;50.224;19.070;2022-07-12T05:11:39;98607.78;;;16.07;93.19
25161;BME280;13125;50.224;19.070;2022-07-12T05:13:14;98607.13;;;16.01;93.48
25161;BME280;13125;50.224;19.070;2022-07-12T05:14:47;98598.80;;;16.03;93.43
25161;BME280;13125;50.224;19.070;2022-07-12T05:16:20;98600.36;;;16.04;93.44
25161;BME280;13125;50.224;19.070;2022-07-12T05:17:52;98596.72;;;16.00;93.56
25161;BME280;13125;50.224;19.070;2022-07-12T05:19:25;98598.30;;;16.01;93.30
25161;BME280;13125;50.224;19.070;2022-07-12T05:20:57;98602.55;;;16.02;93.56
25161;BME280;13125;50.224;19.070;2022-07-12T05:22:30;98599.40;;;16.00;93.52
25161;BME280;13125;50.224;19.070;2022-07-12T05:24:05;98598.30;;;16.01;93.56
25161;BME280;13125;50.224;19.070;2022-07-12T05:25:33;98602.73;;;16.05;93.38
25161;BME280;13125;50.224;19.070;2022-07-12T05:27:08;98605.11;;;16.07;93.32
25161;BME280;13125;50.224;19.070;2022-07-12T05:28:40;98598.95;;;16.06;93.42
25161;BME280;13125;50.224;19.070;2022-07-12T05:30:19;98600.67;;;16.02;93.92
25161;BME280;13125;50.224;19.070;2022-07-12T05:31:55;98599.86;;;16.02;93.90
25161;BME280;13125;50.224;19.070;2022-07-12T05:33:24;98602.91;;;16.09;93.71
25161;BME280;13125;50.224;19.070;2022-07-12T05:34:54;98598.98;;;16.15;93.56
25161;BME280;13125;50.224;19.070;2022-07-12T05:36:27;98588.61;;;16.13;93.86
25161;BME280;13125;50.224;19.070;2022-07-12T05:37:57;98600.22;;;16.09;94.38
25161;BME280;13125;50.224;19.070;2022-07-12T05:39:30;98597.41;;;16.14;94.23
25161;BME280;13125;50.224;19.070;2022-07-12T05:41:02;98596.80;;;16.17;94.10
25161;BME280;13125;50.224;19.070;2022-07-12T05:42:37;98596.50;;;16.18;93.61
25161;BME280;13125;50.224;19.070;2022-07-12T05:44:09;98600.14;;;16.22;93.57
25161;BME280;13125;50.224;19.070;2022-07-12T05:45:44;98594.14;;;16.25;93.41
25161;BME280;13125;50.224;19.070;2022-07-12T05:47:17;98595.25;;;16.24;93.32
25161;BME280;13125;50.224;19.070;2022-07-12T05:48:54;98597.78;;;16.29;93.62
25161;BME280;13125;50.224;19.070;2022-07-12T05:50:28;98600.34;;;16.34;93.71
25161;BME280;13125;50.224;19.070;2022-07-12T05:52:05;98596.27;;;16.37;93.57
25161;BME280;13125;50.224;19.070;2022-07-12T05:53:36;98599.29;;;16.44;93.55
25161;BME280;13125;50.224;19.070;2022-07-12T05:55:06;98599.48;;;16.47;93.31
25161;BME280;13125;50.224;19.070;2022-07-12T05:56:36;98599.64;;;16.51;93.03
25161;BME280;13125;50.224;19.070;2022-07-12T05:58:08;98605.50;;;16.61;92.82
25161;BME280;13125;50.224;19.070;2022-07-12T05:59:38;98594.33;;;16.68;92.48
25161;BME280;13125;50.224;19.070;2022-07-12T06:01:11;98597.30;;;16.58;92.26
25161;BME280;13125;50.224;19.070;2022-07-12T06:02:41;98598.22;;;16.53;92.13
25161;BME280;13125;50.224;19.070;2022-07-12T06:04:14;98598.27;;;16.62;91.97
25161;BME280;13125;50.224;19.070;2022-07-12T06:05:44;98603.94;;;16.69;91.43
25161;BME280;13125;50.224;19.070;2022-07-12T06:07:17;98603.17;;;16.77;91.39
25161;BME280;13125;50.224;19.070;2022-07-12T06:08:52;98605.23;;;16.80;91.31
25161;BME280;13125;50.224;19.070;2022-07-12T06:10:26;98591.22;;;16.83;91.17
25161;BME280;13125;50.224;19.070;2022-07-12T06:11:58;98593.74;;;16.88;91.00
25161;BME280;13125;50.224;19.070;2022-07-12T06:13:28;98588.53;;;16.91;90.86
25161;BME280;13125;50.224;19.070;2022-07-12T06:14:57;98596.58;;;16.91;90.67
25161;BME280;13125;50.224;19.070;2022-07-12T06:16:32;98592.16;;;16.95;90.46
25161;BME280;13125;50.224;19.070;2022-07-12T06:18:05;98594.70;;;16.92;90.35
25161;BME280;13125;50.224;19.070;2022-07-12T06:19:38;98596.29;;;17.01;90.26
25161;BME280;13125;50.224;19.070;2022-07-12T06:21:13;98596.44;;;17.05;89.95
25161;BME280;13125;50.224;19.070;2022-07-12T06:22:46;98598.80;;;17.15;89.63
25161;BME280;13125;50.224;19.070;2022-07-12T06:24:18;98603.55;;;17.18;89.43
25161;BME280;13125;50.224;19.070;2022-07-12T06:25:48;98598.66;;;17.28;89.36
25161;BME280;13125;50.224;19.070;2022-07-12T06:27:21;98597.72;;;17.33;89.24
25161;BME280;13125;50.224;19.070;2022-07-12T06:28:52;98604.49;;;17.39;89.17
25161;BME280;13125;50.224;19.070;2022-07-12T06:30:25;98598.69;;;17.45;89.23
25161;BME280;13125;50.224;19.070;2022-07-12T06:31:55;98596.48;;;17.47;89.37
25161;BME280;13125;50.224;19.070;2022-07-12T06:33:24;98590.16;;;17.52;89.12
25161;BME280;13125;50.224;19.070;2022-07-12T06:34:54;98593.47;;;17.57;88.61
25161;BME280;13125;50.224;19.070;2022-07-12T06:36:27;98594.41;;;17.53;87.63
25161;BME280;13125;50.224;19.070;2022-07-12T06:37:58;98589.50;;;17.63;87.67
25161;BME280;13125;50.224;19.070;2022-07-12T06:39:30;98593.13;;;17.67;87.60
25161;BME280;13125;50.224;19.070;2022-07-12T06:41:08;98595.18;;;17.79;87.40
25161;BME280;13125;50.224;19.070;2022-07-12T06:42:40;98582.04;;;17.86;87.35
25161;BME280;13125;50.224;19.070;2022-07-12T06:44:10;98581.55;;;17.93;87.17
25161;BME280;13125;50.224;19.070;2022-07-12T06:45:46;98588.66;;;17.97;86.67
25161;BME280;13125;50.224;19.070;2022-07-12T06:47:18;98578.35;;;18.08;86.19
25161;BME280;13125;50.224;19.070;2022-07-12T06:48:51;98586.55;;;18.11;85.47
25161;BME280;13125;50.224;19.070;2022-07-12T06:50:23;98595.20;;;18.25;85.28
25161;BME280;13125;50.224;19.070;2022-07-12T06:51:53;98586.80;;;18.35;84.81
25161;BME280;13125;50.224;19.070;2022-07-12T06:53:26;98587.73;;;18.39;84.61
25161;BME280;13125;50.224;19.070;2022-07-12T06:54:56;98587.84;;;18.51;85.01
25161;BME280;13125;50.224;19.070;2022-07-12T06:56:25;98587.45;;;18.61;84.57
25161;BME280;13125;50.224;19.070;2022-07-12T06:57:55;98591.55;;;18.67;84.05
25161;BME280;13125;50.224;19.070;2022-07-12T06:59:28;98585.38;;;18.67;83.11
25161;BME280;13125;50.224;19.070;2022-07-12T07:01:02;98591.16;;;18.77;82.65
25161;BME280;13125;50.224;19.070;2022-07-12T07:02:35;98590.37;;;18.77;82.40
25161;BME280;13125;50.224;19.070;2022-07-12T07:04:05;98601.53;;;18.87;82.17
25161;BME280;13125;50.224;19.070;2022-07-12T07:05:37;98595.06;;;18.88;81.55
25161;BME280;13125;50.224;19.070;2022-07-12T07:07:10;98592.10;;;19.02;81.27
25161;BME280;13125;50.224;19.070;2022-07-12T07:08:42;98602.61;;;19.15;81.01
25161;BME280;13125;50.224;19.070;2022-07-12T07:10:16;98595.91;;;19.21;80.58
25161;BME280;13125;50.224;19.070;2022-07-12T07:11:48;98602.23;;;19.25;79.75
25161;BME280;13125;50.224;19.070;2022-07-12T07:13:20;98595.36;;;19.36;78.87
25161;BME280;13125;50.224;19.070;2022-07-12T07:14:50;98607.48;;;19.42;78.41
25161;BME280;13125;50.224;19.070;2022-07-12T07:16:20;98610.55;;;19.53;77.21
25161;BME280;13125;50.224;19.070;2022-07-12T07:17:53;98606.23;;;19.60;76.94
25161;BME280;13125;50.224;19.070;2022-07-12T07:19:26;98605.77;;;19.58;76.59
25161;BME280;13125;50.224;19.070;2022-07-12T07:21:04;98607.48;;;19.63;76.51
25161;BME280;13125;50.224;19.070;2022-07-12T07:22:37;98609.84;;;19.64;75.88
25161;BME280;13125;50.224;19.070;2022-07-12T07:24:10;98598.65;;;19.74;75.53
25161;BME280;13125;50.224;19.070;2022-07-12T07:25:40;98602.69;;;19.80;75.24
25161;BME280;13125;50.224;19.070;2022-07-12T07:27:13;98594.76;;;19.84;74.78
25161;BME280;13125;50.224;19.070;2022-07-12T07:28:48;98605.27;;;20.09;74.54
25161;BME280;13125;50.224;19.070;2022-07-12T07:30:23;98599.88;;;20.09;74.64
25161;BME280;13125;50.224;19.070;2022-07-12T07:31:52;98607.97;;;20.09;74.22
25161;BME280;13125;50.224;19.070;2022-07-12T07:33:23;98601.14;;;20.24;73.78
25161;BME280;13125;50.224;19.070;2022-07-12T07:34:55;98604.41;;;20.29;72.82
25161;BME280;13125;50.224;19.070;2022-07-12T07:36:25;98608.13;;;20.49;72.84
25161;BME280;13125;50.224;19.070;2022-07-12T07:37:55;98603.64;;;20.65;72.88
25161;BME280;13125;50.224;19.070;2022-07-12T07:39:30;98601.73;;;20.77;72.87
25161;BME280;13125;50.224;19.070;2022-07-12T07:41:07;98602.41;;;20.86;71.24
25161;BME280;13125;50.224;19.070;2022-07-12T07:42:37;98597.44;;;20.88;70.10
25161;BME280;13125;50.224;19.070;2022-07-12T07:44:06;98610.84;;;20.97;69.57
25161;BME280;13125;50.224;19.070;2022-07-12T07:45:39;98605.53;;;21.12;70.02
25161;BME280;13125;50.224;19.070;2022-07-12T07:47:14;98610.69;;;21.17;69.90
25161;BME280;13125;50.224;19.070;2022-07-12T07:48:49;98616.73;;;21.26;69.87
25161;BME280;13125;50.224;19.070;2022-07-12T07:50:22;98611.64;;;21.37;68.74
25161;BME280;13125;50.224;19.070;2022-07-12T07:51:57;98611.94;;;21.47;66.77
25161;BME280;13125;50.224;19.070;2022-07-12T07:53:27;98615.48;;;21.36;65.59
25161;BME280;13125;50.224;19.070;2022-07-12T07:55:02;98634.06;;;21.25;64.76
25161;BME280;13125;50.224;19.070;2022-07-12T07:56:31;98618.52;;;21.34;64.12
25161;BME280;13125;50.224;19.070;2022-07-12T07:58:00;98626.36;;;21.39;62.83
25161;BME280;13125;50.224;19.070;2022-07-12T07:59:32;98616.02;;;21.41;62.58
25161;BME280;13125;50.224;19.070;2022-07-12T08:01:05;98622.41;;;21.49;61.95
25161;BME280;13125;50.224;19.070;2022-07-12T08:02:41;98618.91;;;21.48;62.27
25161;BME280;13125;50.224;19.070;2022-07-12T08:04:13;98618.48;;;21.46;62.34
25161;BME280;13125;50.224;19.070;2022-07-12T08:05:48;98618.60;;;21.38;62.14